CEH2 weather

Cu Nim Airport
Black Diamond, Alberta, Canada

Public forecast

Using degrees Celsius for public forecast. Weather courtesy of forecast.io.

Closest aviation weather report (METAR) to Cu Nim Airport

Closest report is Calgary / Springbank Airport, 24.0 nm (44.5 km) NNW. Retrieved 2020/01/27 08:00 UTC (37 minutes ago):

CYBW 270800Z AUTO 31009KT 9SM BKN230 M02/M08 A2977 RMK SLP132

Closest aviation forecast (TAF) to Cu Nim Airport

Forecast is more than 6 hours old.

Closest forecast is Calgary / Springbank Airport, 24.0 nm (44.5 km) NNW. Retrieved 2020-01-27 00:00 UTC (9 hours ago):

TAF CYBW 262341Z 2700/2705 VRB03KT P6SM BKN120 BECMG 2701/2703 27008KT FEW140 RMK FCST BASED ON AUTO OBS NXT FCST WILL BE ISSUED AT 271245Z